Airfield :
LOGIN :

Register | Disclaimer

   EN    FR    IT 

 










Legend :    VFR   Marginal VFR   IFR   Intensive IFR   Very Intensive IFR
Visi :
Ceiling :
>= 8 km
>= 3000ft
5 to 8 km
1000 to 3000 ft
1500m to 5 km
500 to 1000 ft
800 to 1500m
200 to 500 ft
< 800m
< 200 ft
Symbols :   Thunderstorms  Fog  Heavy snow  Heavy precipitations  Wind > 20 kt
SIGMETs :     Misc.  Thunderstorms  Icing  Turbulence  Mountain Waves  Volcanic Ashes






- Airport Elevation : 219 ft
- IATA code : DNR


LFRD - Dinard

CURRENT METAR :
  • 192200Z AUTO 20006KT CAVOK 14/13 Q1009 NOSIG

EXPIRED METARs :
  • 192130Z AUTO 20005KT CAVOK 15/13 Q1008 NOSIG
  • 192100Z AUTO 22009KT CAVOK 16/14 Q1008 TEMPO 3000 SHRA BKN008 BKN015CB
  • 192030Z AUTO 21007KT CAVOK 16/15 Q1008 TEMPO 3000 SHRA BKN008 BKN015CB
  • 192000Z AUTO VRB02KT 9000 NSC 16/15 Q1008 TEMPO 3000 SHRA BKN008 BKN015CB
  • 191930Z AUTO VRB02KT 9999 FEW024/// OVC056/// ///CB 17/16 Q1009 TEMPO 3000 SHRA BKN008 BKN015CB

TAF AMD TAF LFRD
Valid from the 19 at 18:00 until the 20 at 18:00 UTC


191740Z 1918/2018 VRB05KT 9999 BKN030
BECMG 1918/1921 20010KT
TEMPO 1918/1922 3000 SHRA BKN008 BKN015CB
TEMPO 1918/1920 2000 +TSRAGR
BECMG 2006/2009 13005KT
TEMPO 2014/2018 3000 SHRA BKN015CB
PROB30
TEMPO 2015/2018 TSRA
ATIS : +33 2 99 16 81 50



MET'MAP, your aeronautical weather chart ! - Copyright ORBIFLY December 2007 - Disclaimer

ORBIFLY MET'MAP TEAM :

Programming & Development : Alexandra Zaïnal
Concept & original design : Baudouin d'Aumeries
Assistance for programming : Marc-Olivier Méhu
Technical & hardware support : Manuel Goepfert

Contact : metmap@orbifly.com




SOURCES & CREDITS :

   NOAA